sensor_id;sensor_type;location;lat;lon;timestamp;pressure;altitude;pressure_sealevel;temperature;humidity
77893;BME280;67087;50.094;14.338;2023-04-06T00:02:19;98410.63;;;25.27;36.04
77893;BME280;67087;50.094;14.338;2023-04-06T00:04:44;98406.64;;;25.68;36.12
77893;BME280;67087;50.094;14.338;2023-04-06T00:07:09;98405.81;;;25.20;36.09
77893;BME280;67087;50.094;14.338;2023-04-06T00:09:34;98403.97;;;25.38;36.16
77893;BME280;67087;50.094;14.338;2023-04-06T00:11:59;98403.44;;;25.71;36.05
77893;BME280;67087;50.094;14.338;2023-04-06T00:14:25;98399.27;;;25.58;35.88
77893;BME280;67087;50.094;14.338;2023-04-06T00:16:50;98399.55;;;25.61;35.81
77893;BME280;67087;50.094;14.338;2023-04-06T00:19:15;98400.89;;;25.71;35.95
77893;BME280;67087;50.094;14.338;2023-04-06T00:21:40;98399.64;;;25.14;36.08
77893;BME280;67087;50.094;14.338;2023-04-06T00:24:05;98397.86;;;25.75;35.92
77893;BME280;67087;50.094;14.338;2023-04-06T00:26:30;98398.23;;;25.68;35.95
77893;BME280;67087;50.094;14.338;2023-04-06T00:28:55;98396.87;;;25.65;35.98
77893;BME280;67087;50.094;14.338;2023-04-06T00:31:20;98393.42;;;25.14;36.03
77893;BME280;67087;50.094;14.338;2023-04-06T00:33:45;98394.31;;;25.58;36.07
77893;BME280;67087;50.094;14.338;2023-04-06T00:36:11;98391.58;;;25.17;35.93
77893;BME280;67087;50.094;14.338;2023-04-06T00:38:36;98392.53;;;25.38;35.97
77893;BME280;67087;50.094;14.338;2023-04-06T00:41:01;98389.63;;;25.36;35.97
77893;BME280;67087;50.094;14.338;2023-04-06T00:43:26;98388.58;;;25.36;35.98
77893;BME280;67087;50.094;14.338;2023-04-06T00:45:51;98382.41;;;25.41;35.92
77893;BME280;67087;50.094;14.338;2023-04-06T00:48:17;98382.59;;;25.51;36.08
77893;BME280;67087;50.094;14.338;2023-04-06T00:50:42;98381.72;;;25.60;35.99
77893;BME280;67087;50.094;14.338;2023-04-06T00:53:06;98379.12;;;25.39;35.95
77893;BME280;67087;50.094;14.338;2023-04-06T00:55:32;98376.53;;;25.41;35.93
77893;BME280;67087;50.094;14.338;2023-04-06T00:57:58;98374.14;;;25.39;35.96
77893;BME280;67087;50.094;14.338;2023-04-06T01:00:22;98376.21;;;25.34;36.03
77893;BME280;67087;50.094;14.338;2023-04-06T01:02:47;98377.24;;;25.33;36.01
77893;BME280;67087;50.094;14.338;2023-04-06T01:05:12;98379.79;;;25.29;36.04
77893;BME280;67087;50.094;14.338;2023-04-06T01:07:37;98375.55;;;25.41;35.88
77893;BME280;67087;50.094;14.338;2023-04-06T01:10:03;98375.99;;;25.59;35.96
77893;BME280;67087;50.094;14.338;2023-04-06T01:12:27;98379.50;;;25.02;36.09
77893;BME280;67087;50.094;14.338;2023-04-06T01:14:53;98373.76;;;25.62;35.92
77893;BME280;67087;50.094;14.338;2023-04-06T01:17:18;98373.77;;;25.11;35.94
77893;BME280;67087;50.094;14.338;2023-04-06T01:19:43;98372.26;;;25.61;35.89
77893;BME280;67087;50.094;14.338;2023-04-06T01:22:08;98374.72;;;25.51;36.01
77893;BME280;67087;50.094;14.338;2023-04-06T01:24:33;98374.78;;;25.31;35.96
77893;BME280;67087;50.094;14.338;2023-04-06T01:26:58;98375.28;;;25.31;35.96
77893;BME280;67087;50.094;14.338;2023-04-06T01:29:23;98373.27;;;25.33;35.92
77893;BME280;67087;50.094;14.338;2023-04-06T01:31:48;98370.13;;;25.35;35.88
77893;BME280;67087;50.094;14.338;2023-04-06T01:34:13;98370.02;;;25.36;35.86
77893;BME280;67087;50.094;14.338;2023-04-06T01:36:39;98369.67;;;25.15;35.83
77893;BME280;67087;50.094;14.338;2023-04-06T01:39:04;98371.38;;;25.60;35.82
77893;BME280;67087;50.094;14.338;2023-04-06T01:41:29;98371.78;;;25.34;35.89
77893;BME280;67087;50.094;14.338;2023-04-06T01:43:54;98369.61;;;25.28;35.92
77893;BME280;67087;50.094;14.338;2023-04-06T01:46:19;98366.58;;;25.37;35.76
77893;BME280;67087;50.094;14.338;2023-04-06T01:48:44;98364.79;;;25.34;35.83
77893;BME280;67087;50.094;14.338;2023-04-06T01:51:09;98368.82;;;25.19;35.98
77893;BME280;67087;50.094;14.338;2023-04-06T01:53:34;98363.57;;;25.27;35.86
77893;BME280;67087;50.094;14.338;2023-04-06T01:56:00;98363.88;;;25.45;35.94
77893;BME280;67087;50.094;14.338;2023-04-06T01:58:25;98361.92;;;25.26;35.82
77893;BME280;67087;50.094;14.338;2023-04-06T02:00:50;98366.46;;;25.43;35.95
77893;BME280;67087;50.094;14.338;2023-04-06T02:03:15;98365.62;;;25.42;35.93
77893;BME280;67087;50.094;14.338;2023-04-06T02:05:40;98365.45;;;25.45;35.87
77893;BME280;67087;50.094;14.338;2023-04-06T02:08:05;98361.02;;;25.59;35.69
77893;BME280;67087;50.094;14.338;2023-04-06T02:10:30;98360.64;;;25.22;35.84
77893;BME280;67087;50.094;14.338;2023-04-06T02:12:55;98360.63;;;25.52;35.78
77893;BME280;67087;50.094;14.338;2023-04-06T02:15:21;98359.49;;;24.97;35.87
77893;BME280;67087;50.094;14.338;2023-04-06T02:17:46;98358.40;;;25.46;35.80
77893;BME280;67087;50.094;14.338;2023-04-06T02:20:11;98358.19;;;25.44;35.83
77893;BME280;67087;50.094;14.338;2023-04-06T02:22:36;98358.00;;;25.29;35.72
77893;BME280;67087;50.094;14.338;2023-04-06T02:25:01;98359.13;;;25.42;35.87
77893;BME280;67087;50.094;14.338;2023-04-06T02:27:26;98357.68;;;25.43;35.84
77893;BME280;67087;50.094;14.338;2023-04-06T02:29:51;98355.34;;;25.45;35.83
77893;BME280;67087;50.094;14.338;2023-04-06T02:32:17;98355.07;;;25.41;35.89
77893;BME280;67087;50.094;14.338;2023-04-06T02:34:42;98352.28;;;25.29;35.71
77893;BME280;67087;50.094;14.338;2023-04-06T02:37:07;98353.55;;;25.27;35.70
77893;BME280;67087;50.094;14.338;2023-04-06T02:39:32;98355.59;;;25.20;35.83
77893;BME280;67087;50.094;14.338;2023-04-06T02:41:57;98353.46;;;25.53;35.66
77893;BME280;67087;50.094;14.338;2023-04-06T02:44:22;98352.98;;;25.56;35.57
77893;BME280;67087;50.094;14.338;2023-04-06T02:46:47;98350.63;;;25.46;35.75
77893;BME280;67087;50.094;14.338;2023-04-06T02:49:12;98351.33;;;25.52;35.65
77893;BME280;67087;50.094;14.338;2023-04-06T02:51:37;98348.03;;;25.20;35.70
77893;BME280;67087;50.094;14.338;2023-04-06T02:54:03;98349.02;;;25.27;35.61
77893;BME280;67087;50.094;14.338;2023-04-06T02:56:28;98349.40;;;25.23;35.68
77893;BME280;67087;50.094;14.338;2023-04-06T02:58:53;98349.64;;;25.50;35.63
77893;BME280;67087;50.094;14.338;2023-04-06T03:01:18;98351.00;;;24.89;35.77
77893;BME280;67087;50.094;14.338;2023-04-06T03:03:43;98348.13;;;25.11;35.78
77893;BME280;67087;50.094;14.338;2023-04-06T03:06:08;98348.48;;;25.38;35.73
77893;BME280;67087;50.094;14.338;2023-04-06T03:08:33;98351.91;;;25.37;35.73
77893;BME280;67087;50.094;14.338;2023-04-06T03:10:58;98352.33;;;25.38;35.70
77893;BME280;67087;50.094;14.338;2023-04-06T03:13:24;98352.56;;;24.97;35.59
77893;BME280;67087;50.094;14.338;2023-04-06T03:15:49;98355.75;;;25.16;35.66
77893;BME280;67087;50.094;14.338;2023-04-06T03:18:14;98355.91;;;25.41;35.63
77893;BME280;67087;50.094;14.338;2023-04-06T03:20:39;98357.80;;;25.41;35.63
77893;BME280;67087;50.094;14.338;2023-04-06T03:23:04;98360.32;;;25.44;35.61
77893;BME280;67087;50.094;14.338;2023-04-06T03:25:29;98360.07;;;25.24;35.55
77893;BME280;67087;50.094;14.338;2023-04-06T03:27:54;98360.43;;;25.43;35.62
77893;BME280;67087;50.094;14.338;2023-04-06T03:30:19;98359.49;;;25.19;35.59
77893;BME280;67087;50.094;14.338;2023-04-06T03:32:45;98365.63;;;25.12;35.70
77893;BME280;67087;50.094;14.338;2023-04-06T03:35:10;98364.95;;;25.07;35.73
77893;BME280;67087;50.094;14.338;2023-04-06T03:37:35;98367.64;;;25.17;35.57
77893;BME280;67087;50.094;14.338;2023-04-06T03:40:00;98371.22;;;25.35;35.65
77893;BME280;67087;50.094;14.338;2023-04-06T03:42:25;98372.42;;;24.89;35.63
77893;BME280;67087;50.094;14.338;2023-04-06T03:44:50;98374.09;;;25.32;35.66
77893;BME280;67087;50.094;14.338;2023-04-06T03:47:16;98379.77;;;25.15;35.58
77893;BME280;67087;50.094;14.338;2023-04-06T03:49:40;98380.31;;;25.43;35.54
77893;BME280;67087;50.094;14.338;2023-04-06T03:52:06;98382.61;;;25.15;35.58
77893;BME280;67087;50.094;14.338;2023-04-06T03:54:31;98382.62;;;24.88;35.65
77893;BME280;67087;50.094;14.338;2023-04-06T03:56:56;98385.82;;;25.36;35.65
77893;BME280;67087;50.094;14.338;2023-04-06T03:59:21;98384.75;;;25.14;35.63
77893;BME280;67087;50.094;14.338;2023-04-06T04:01:46;98384.87;;;25.43;35.56
77893;BME280;67087;50.094;14.338;2023-04-06T04:04:11;98385.00;;;25.35;35.66
77893;BME280;67087;50.094;14.338;2023-04-06T04:06:36;98387.40;;;25.07;35.65
77893;BME280;67087;50.094;14.338;2023-04-06T04:09:01;98387.68;;;25.34;35.65
77893;BME280;67087;50.094;14.338;2023-04-06T04:11:26;98389.97;;;25.40;35.53
77893;BME280;67087;50.094;14.338;2023-04-06T04:13:52;98389.01;;;25.42;35.51
77893;BME280;67087;50.094;14.338;2023-04-06T04:16:17;98387.73;;;25.13;35.59
77893;BME280;67087;50.094;14.338;2023-04-06T04:18:42;98386.61;;;25.38;35.61
77893;BME280;67087;50.094;14.338;2023-04-06T04:21:07;98387.90;;;25.39;35.55
77893;BME280;67087;50.094;14.338;2023-04-06T04:23:32;98387.70;;;25.21;35.58
77893;BME280;67087;50.094;14.338;2023-04-06T04:25:57;98389.05;;;25.39;35.68
77893;BME280;67087;50.094;14.338;2023-04-06T04:28:22;98388.10;;;24.88;35.79
77893;BME280;67087;50.094;14.338;2023-04-06T04:30:48;98389.60;;;25.41;35.31
77893;BME280;67087;50.094;14.338;2023-04-06T04:33:13;98393.29;;;25.44;35.39
77893;BME280;67087;50.094;14.338;2023-04-06T04:35:38;98393.60;;;25.34;35.96
77893;BME280;67087;50.094;14.338;2023-04-06T04:38:03;98394.59;;;25.45;35.71
77893;BME280;67087;50.094;14.338;2023-04-06T04:40:28;98394.29;;;25.36;35.44
77893;BME280;67087;50.094;14.338;2023-04-06T04:42:53;98396.77;;;25.61;35.28
77893;BME280;67087;50.094;14.338;2023-04-06T04:45:18;98393.53;;;25.36;35.40
77893;BME280;67087;50.094;14.338;2023-04-06T04:47:43;98397.00;;;25.21;35.75
77893;BME280;67087;50.094;14.338;2023-04-06T04:50:09;98398.30;;;25.44;35.75
77893;BME280;67087;50.094;14.338;2023-04-06T04:52:34;98398.50;;;25.47;35.56
77893;BME280;67087;50.094;14.338;2023-04-06T04:54:59;98398.14;;;25.55;31.36
77893;BME280;67087;50.094;14.338;2023-04-06T04:57:25;98397.14;;;24.96;29.63
77893;BME280;67087;50.094;14.338;2023-04-06T04:59:50;98399.31;;;25.47;30.58
77893;BME280;67087;50.094;14.338;2023-04-06T05:02:16;98399.60;;;25.10;31.71
77893;BME280;67087;50.094;14.338;2023-04-06T05:04:41;98402.65;;;25.33;32.02
77893;BME280;67087;50.094;14.338;2023-04-06T05:07:07;98402.60;;;25.31;32.43
77893;BME280;67087;50.094;14.338;2023-04-06T05:09:31;98405.61;;;25.04;33.06
77893;BME280;67087;50.094;14.338;2023-04-06T05:11:56;98408.81;;;25.26;33.20
77893;BME280;67087;50.094;14.338;2023-04-06T05:14:22;98409.60;;;25.23;33.44
77893;BME280;67087;50.094;14.338;2023-04-06T05:16:47;98409.66;;;25.24;33.65
77893;BME280;67087;50.094;14.338;2023-04-06T05:19:12;98408.03;;;26.14;31.13
77893;BME280;67087;50.094;14.338;2023-04-06T05:21:38;98413.16;;;25.30;30.36
77893;BME280;67087;50.094;14.338;2023-04-06T05:24:03;98409.59;;;25.27;31.75
77893;BME280;67087;50.094;14.338;2023-04-06T05:26:28;98409.36;;;24.83;31.99
77893;BME280;67087;50.094;14.338;2023-04-06T05:28:54;98410.66;;;25.15;32.45
77893;BME280;67087;50.094;14.338;2023-04-06T05:31:19;98412.52;;;25.02;33.00
77893;BME280;67087;50.094;14.338;2023-04-06T05:33:44;98413.61;;;25.05;33.26
77893;BME280;67087;50.094;14.338;2023-04-06T05:36:09;98411.53;;;25.21;33.38
77893;BME280;67087;50.094;14.338;2023-04-06T05:38:35;98414.68;;;25.00;33.75
77893;BME280;67087;50.094;14.338;2023-04-06T05:41:00;98412.49;;;25.22;34.36
77893;BME280;67087;50.094;14.338;2023-04-06T05:43:26;98415.41;;;25.07;34.09
77893;BME280;67087;50.094;14.338;2023-04-06T05:45:52;98414.58;;;25.10;34.29
77893;BME280;67087;50.094;14.338;2023-04-06T05:48:17;98411.52;;;25.48;34.30
77893;BME280;67087;50.094;14.338;2023-04-06T05:50:42;98411.83;;;25.27;34.62
77893;BME280;67087;50.094;14.338;2023-04-06T05:53:07;98411.99;;;25.64;35.35
77893;BME280;67087;50.094;14.338;2023-04-06T05:55:32;98414.83;;;25.25;35.62
77893;BME280;67087;50.094;14.338;2023-04-06T05:57:58;98412.45;;;25.65;35.46
77893;BME280;67087;50.094;14.338;2023-04-06T06:00:23;98413.04;;;25.03;37.60
77893;BME280;67087;50.094;14.338;2023-04-06T06:02:49;98410.51;;;25.38;36.33
77893;BME280;67087;50.094;14.338;2023-04-06T06:05:14;98411.25;;;25.54;36.06
77893;BME280;67087;50.094;14.338;2023-04-06T06:07:39;98410.99;;;26.15;35.48
77893;BME280;67087;50.094;14.338;2023-04-06T06:10:06;98412.12;;;25.34;36.53
77893;BME280;67087;50.094;14.338;2023-04-06T06:12:30;98414.43;;;25.22;36.65
77893;BME280;67087;50.094;14.338;2023-04-06T06:14:55;98410.72;;;25.70;36.71
77893;BME280;67087;50.094;14.338;2023-04-06T06:17:21;98413.36;;;25.44;36.82
77893;BME280;67087;50.094;14.338;2023-04-06T06:19:47;98414.95;;;25.35;36.27
77893;BME280;67087;50.094;14.338;2023-04-06T06:22:12;98416.59;;;25.33;36.99
77893;BME280;67087;50.094;14.338;2023-04-06T06:24:37;98415.06;;;25.95;36.43
77893;BME280;67087;50.094;14.338;2023-04-06T06:27:02;98407.95;;;24.25;19.58
77893;BME280;67087;50.094;14.338;2023-04-06T06:29:27;98416.34;;;22.71;17.60
77893;BME280;67087;50.094;14.338;2023-04-06T06:31:53;98411.96;;;22.00;16.17
77893;BME280;67087;50.094;14.338;2023-04-06T06:34:18;98411.66;;;21.10;16.48
77893;BME280;67087;50.094;14.338;2023-04-06T06:36:44;98412.75;;;21.78;16.98
77893;BME280;67087;50.094;14.338;2023-04-06T06:39:09;98415.23;;;21.51;16.76
77893;BME280;67087;50.094;14.338;2023-04-06T06:41:35;98415.96;;;20.83;19.53
77893;BME280;67087;50.094;14.338;2023-04-06T06:44:00;98414.06;;;21.82;21.03
77893;BME280;67087;50.094;14.338;2023-04-06T06:46:26;98418.53;;;22.38;22.47
77893;BME280;67087;50.094;14.338;2023-04-06T06:48:52;98422.61;;;23.10;23.27
77893;BME280;67087;50.094;14.338;2023-04-06T06:51:17;98426.15;;;23.38;23.89
77893;BME280;67087;50.094;14.338;2023-04-06T06:53:42;98426.57;;;23.67;25.07
77893;BME280;67087;50.094;14.338;2023-04-06T06:56:08;98427.17;;;24.18;25.71
77893;BME280;67087;50.094;14.338;2023-04-06T06:58:33;98427.31;;;23.95;26.60
77893;BME280;67087;50.094;14.338;2023-04-06T07:00:58;98424.35;;;24.51;27.48
77893;BME280;67087;50.094;14.338;2023-04-06T07:03:24;98425.09;;;24.40;27.86
77893;BME280;67087;50.094;14.338;2023-04-06T07:05:49;98425.70;;;24.54;28.09
77893;BME280;67087;50.094;14.338;2023-04-06T07:08:14;98425.47;;;24.58;28.47
77893;BME280;67087;50.094;14.338;2023-04-06T07:10:39;98428.09;;;24.61;28.81
77893;BME280;67087;50.094;14.338;2023-04-06T07:13:04;98426.02;;;24.72;29.06
77893;BME280;67087;50.094;14.338;2023-04-06T07:15:30;98425.60;;;24.72;29.33
77893;BME280;67087;50.094;14.338;2023-04-06T07:17:55;98426.64;;;24.55;29.85
77893;BME280;67087;50.094;14.338;2023-04-06T07:20:21;98423.52;;;24.43;29.89
77893;BME280;67087;50.094;14.338;2023-04-06T07:22:47;98424.93;;;24.73;30.12
77893;BME280;67087;50.094;14.338;2023-04-06T07:25:12;98424.11;;;24.81;30.38
77893;BME280;67087;50.094;14.338;2023-04-06T07:27:38;98422.19;;;24.64;30.79
77893;BME280;67087;50.094;14.338;2023-04-06T07:30:05;98421.56;;;25.05;30.76
77893;BME280;67087;50.094;14.338;2023-04-06T07:32:29;98421.77;;;24.80;30.99
77893;BME280;67087;50.094;14.338;2023-04-06T07:34:56;98420.20;;;24.86;31.12
77893;BME280;67087;50.094;14.338;2023-04-06T07:37:21;98419.27;;;24.34;31.38
77893;BME280;67087;50.094;14.338;2023-04-06T07:39:46;98416.57;;;24.81;31.52
77893;BME280;67087;50.094;14.338;2023-04-06T07:42:12;98411.97;;;24.82;31.53
77893;BME280;67087;50.094;14.338;2023-04-06T07:44:37;98411.29;;;24.76;31.70
77893;BME280;67087;50.094;14.338;2023-04-06T07:47:03;98411.23;;;24.59;31.94
77893;BME280;67087;50.094;14.338;2023-04-06T07:49:28;98411.45;;;24.68;31.86
77893;BME280;67087;50.094;14.338;2023-04-06T07:51:54;98412.37;;;24.60;32.12
77893;BME280;67087;50.094;14.338;2023-04-06T07:54:19;98412.28;;;24.26;31.89
77893;BME280;67087;50.094;14.338;2023-04-06T07:56:44;98416.16;;;24.87;32.26
77893;BME280;67087;50.094;14.338;2023-04-06T07:59:10;98415.19;;;24.44;32.61
77893;BME280;67087;50.094;14.338;2023-04-06T08:01:35;98415.35;;;24.88;32.47
77893;BME280;67087;50.094;14.338;2023-04-06T08:04:01;98410.91;;;24.70;32.43
77893;BME280;67087;50.094;14.338;2023-04-06T08:06:26;98413.79;;;24.48;32.48
77893;BME280;67087;50.094;14.338;2023-04-06T08:08:51;98413.42;;;24.95;32.50
77893;BME280;67087;50.094;14.338;2023-04-06T08:11:18;98414.54;;;24.70;32.59
77893;BME280;67087;50.094;14.338;2023-04-06T08:13:42;98415.44;;;24.93;32.67
77893;BME280;67087;50.094;14.338;2023-04-06T08:16:08;98415.83;;;24.81;32.73
77893;BME280;67087;50.094;14.338;2023-04-06T08:18:34;98414.33;;;24.57;32.76
77893;BME280;67087;50.094;14.338;2023-04-06T08:20:59;98416.49;;;25.56;32.17
77893;BME280;67087;50.094;14.338;2023-04-06T08:23:25;98415.58;;;24.80;32.65
77893;BME280;67087;50.094;14.338;2023-04-06T08:25:50;98414.15;;;24.97;32.92
77893;BME280;67087;50.094;14.338;2023-04-06T08:28:15;98410.57;;;24.73;33.09
77893;BME280;67087;50.094;14.338;2023-04-06T08:30:40;98411.25;;;24.70;33.16
77893;BME280;67087;50.094;14.338;2023-04-06T08:33:06;98412.61;;;24.69;33.27
77893;BME280;67087;50.094;14.338;2023-04-06T08:35:31;98411.43;;;24.48;33.19
77893;BME280;67087;50.094;14.338;2023-04-06T08:37:57;98410.28;;;24.48;33.31
77893;BME280;67087;50.094;14.338;2023-04-06T08:40:21;98408.00;;;24.48;33.36
77893;BME280;67087;50.094;14.338;2023-04-06T08:42:50;98404.44;;;24.74;33.43
77893;BME280;67087;50.094;14.338;2023-04-06T08:45:12;98402.82;;;24.85;33.35
77893;BME280;67087;50.094;14.338;2023-04-06T08:47:37;98400.29;;;24.57;33.40
77893;BME280;67087;50.094;14.338;2023-04-06T08:50:04;98403.36;;;25.09;33.37
77893;BME280;67087;50.094;14.338;2023-04-06T08:52:28;98407.26;;;25.06;33.36
77893;BME280;67087;50.094;14.338;2023-04-06T08:54:53;98410.19;;;25.49;32.88
77893;BME280;67087;50.094;14.338;2023-04-06T08:57:19;98410.10;;;24.79;33.07
77893;BME280;67087;50.094;14.338;2023-04-06T08:59:44;98410.45;;;25.06;33.10
77893;BME280;67087;50.094;14.338;2023-04-06T09:02:15;98405.98;;;25.32;32.90
77893;BME280;67087;50.094;14.338;2023-04-06T09:04:35;98403.95;;;25.20;33.30
77893;BME280;67087;50.094;14.338;2023-04-06T09:07:00;98404.14;;;25.37;33.13
77893;BME280;67087;50.094;14.338;2023-04-06T09:09:25;98403.85;;;24.80;33.59
77893;BME280;67087;50.094;14.338;2023-04-06T09:11:51;98406.01;;;25.21;33.38
77893;BME280;67087;50.094;14.338;2023-04-06T09:14:17;98402.85;;;24.85;33.86
77893;BME280;67087;50.094;14.338;2023-04-06T09:16:42;98407.71;;;24.76;33.69
77893;BME280;67087;50.094;14.338;2023-04-06T09:19:06;98405.06;;;24.53;34.06
77893;BME280;67087;50.094;14.338;2023-04-06T09:21:32;98404.73;;;24.72;34.11
77893;BME280;67087;50.094;14.338;2023-04-06T09:23:58;98406.46;;;24.82;34.02
77893;BME280;67087;50.094;14.338;2023-04-06T09:26:22;98403.47;;;24.37;34.31
77893;BME280;67087;50.094;14.338;2023-04-06T09:28:48;98402.01;;;24.27;34.53
77893;BME280;67087;50.094;14.338;2023-04-06T09:31:13;98396.92;;;24.63;34.34
77893;BME280;67087;50.094;14.338;2023-04-06T09:33:38;98394.16;;;24.63;34.39
77893;BME280;67087;50.094;14.338;2023-04-06T09:36:03;98393.66;;;24.62;34.46
77893;BME280;67087;50.094;14.338;2023-04-06T09:38:29;98392.73;;;24.55;34.51
77893;BME280;67087;50.094;14.338;2023-04-06T09:40:54;98391.72;;;24.48;34.66
77893;BME280;67087;50.094;14.338;2023-04-06T09:43:25;98389.48;;;24.27;34.60
77893;BME280;67087;50.094;14.338;2023-04-06T09:45:45;98387.94;;;24.50;34.67
77893;BME280;67087;50.094;14.338;2023-04-06T09:48:10;98386.18;;;24.61;34.55
77893;BME280;67087;50.094;14.338;2023-04-06T09:50:35;98388.50;;;24.29;34.64
77893;BME280;67087;50.094;14.338;2023-04-06T09:53:01;98384.77;;;24.73;34.39
77893;BME280;67087;50.094;14.338;2023-04-06T09:55:30;98382.70;;;24.12;34.59
77893;BME280;67087;50.094;14.338;2023-04-06T09:57:57;98378.84;;;24.65;34.55
77893;BME280;67087;50.094;14.338;2023-04-06T10:00:19;98376.97;;;24.67;34.55
77893;BME280;67087;50.094;14.338;2023-04-06T10:02:51;98379.12;;;24.45;34.55
77893;BME280;67087;50.094;14.338;2023-04-06T10:05:11;98381.63;;;24.52;34.41
77893;BME280;67087;50.094;14.338;2023-04-06T10:07:32;98380.17;;;24.69;34.54
77893;BME280;67087;50.094;14.338;2023-04-06T10:09:58;98379.30;;;24.70;34.54
77893;BME280;67087;50.094;14.338;2023-04-06T10:12:22;98373.10;;;24.50;34.49
77893;BME280;67087;50.094;14.338;2023-04-06T10:14:48;98371.19;;;24.72;34.55
77893;BME280;67087;50.094;14.338;2023-04-06T10:17:12;98373.04;;;24.76;34.50
77893;BME280;67087;50.094;14.338;2023-04-06T10:19:41;98371.89;;;24.84;34.45
77893;BME280;67087;50.094;14.338;2023-04-06T10:22:05;98366.00;;;24.80;34.49
77893;BME280;67087;50.094;14.338;2023-04-06T10:24:29;98366.43;;;24.55;34.48
77893;BME280;67087;50.094;14.338;2023-04-06T10:26:58;98364.28;;;24.88;34.38
77893;BME280;67087;50.094;14.338;2023-04-06T10:29:21;98363.56;;;24.46;34.33
77893;BME280;67087;50.094;14.338;2023-04-06T10:31:44;98359.11;;;24.97;34.30
77893;BME280;67087;50.094;14.338;2023-04-06T10:34:10;98357.86;;;24.97;34.32
77893;BME280;67087;50.094;14.338;2023-04-06T10:36:35;98354.78;;;24.96;34.35
77893;BME280;67087;50.094;14.338;2023-04-06T10:39:02;98356.17;;;24.95;34.39
77893;BME280;67087;50.094;14.338;2023-04-06T10:41:33;98354.25;;;24.69;34.41
77893;BME280;67087;50.094;14.338;2023-04-06T10:43:55;98351.73;;;24.96;34.45
77893;BME280;67087;50.094;14.338;2023-04-06T10:46:24;98353.56;;;24.87;34.54
77893;BME280;67087;50.094;14.338;2023-04-06T10:48:42;98353.06;;;24.86;34.50
77893;BME280;67087;50.094;14.338;2023-04-06T10:51:11;98349.51;;;24.98;34.36
77893;BME280;67087;50.094;14.338;2023-04-06T10:53:33;98346.62;;;24.51;34.40
77893;BME280;67087;50.094;14.338;2023-04-06T10:55:57;98345.63;;;24.74;34.43
77893;BME280;67087;50.094;14.338;2023-04-06T10:58:25;98343.18;;;25.05;34.32
77893;BME280;67087;50.094;14.338;2023-04-06T11:00:48;98336.32;;;24.72;34.42
77893;BME280;67087;50.094;14.338;2023-04-06T11:03:12;98338.23;;;25.01;34.36
77893;BME280;67087;50.094;14.338;2023-04-06T11:05:37;98335.97;;;25.08;34.30
77893;BME280;67087;50.094;14.338;2023-04-06T11:08:02;98338.10;;;24.98;34.41
77893;BME280;67087;50.094;14.338;2023-04-06T11:10:28;98340.02;;;24.54;34.40
77893;BME280;67087;50.094;14.338;2023-04-06T11:12:54;98338.54;;;24.98;34.41
77893;BME280;67087;50.094;14.338;2023-04-06T11:15:18;98336.34;;;25.05;34.35
77893;BME280;67087;50.094;14.338;2023-04-06T11:17:43;98335.65;;;24.99;34.44
77893;BME280;67087;50.094;14.338;2023-04-06T11:20:10;98334.03;;;25.17;34.50
77893;BME280;67087;50.094;14.338;2023-04-06T11:22:33;98332.95;;;24.96;34.47
77893;BME280;67087;50.094;14.338;2023-04-06T11:25:05;98333.48;;;24.95;34.51
77893;BME280;67087;50.094;14.338;2023-04-06T11:27:24;98336.31;;;25.01;34.49
77893;BME280;67087;50.094;14.338;2023-04-06T11:29:49;98330.89;;;25.15;34.55
77893;BME280;67087;50.094;14.338;2023-04-06T11:32:20;98332.14;;;24.90;34.54
77893;BME280;67087;50.094;14.338;2023-04-06T11:34:40;98331.85;;;24.94;34.52
77893;BME280;67087;50.094;14.338;2023-04-06T11:37:09;98328.20;;;24.96;34.55
77893;BME280;67087;50.094;14.338;2023-04-06T11:39:30;98326.68;;;24.48;34.54
77893;BME280;67087;50.094;14.338;2023-04-06T11:41:58;98324.54;;;24.95;34.51
77893;BME280;67087;50.094;14.338;2023-04-06T11:44:31;98323.55;;;24.50;34.57
77893;BME280;67087;50.094;14.338;2023-04-06T11:46:51;98317.82;;;25.06;34.38
77893;BME280;67087;50.094;14.338;2023-04-06T11:49:15;98313.07;;;25.06;34.47
77893;BME280;67087;50.094;14.338;2023-04-06T11:51:36;98312.06;;;24.75;34.49
77893;BME280;67087;50.094;14.338;2023-04-06T11:54:00;98310.50;;;25.07;34.47
77893;BME280;67087;50.094;14.338;2023-04-06T11:56:27;98308.05;;;25.03;34.48
77893;BME280;67087;50.094;14.338;2023-04-06T11:58:51;98309.92;;;24.83;34.49
77893;BME280;67087;50.094;14.338;2023-04-06T12:01:16;98308.83;;;25.05;34.51
77893;BME280;67087;50.094;14.338;2023-04-06T12:03:41;98310.64;;;24.77;34.53
77893;BME280;67087;50.094;14.338;2023-04-06T12:06:06;98306.21;;;24.77;34.53
77893;BME280;67087;50.094;14.338;2023-04-06T12:08:31;98305.31;;;24.98;34.57
77893;BME280;67087;50.094;14.338;2023-04-06T12:10:57;98299.94;;;25.05;34.55
77893;BME280;67087;50.094;14.338;2023-04-06T12:13:22;98299.48;;;24.82;34.55
77893;BME280;67087;50.094;14.338;2023-04-06T12:15:47;98299.02;;;25.03;34.51
77893;BME280;67087;50.094;14.338;2023-04-06T12:18:12;98298.27;;;24.95;34.60
77893;BME280;67087;50.094;14.338;2023-04-06T12:20:37;98294.24;;;24.72;34.73
77893;BME280;67087;50.094;14.338;2023-04-06T12:23:02;98296.61;;;25.28;34.59
77893;BME280;67087;50.094;14.338;2023-04-06T12:25:28;98297.79;;;24.71;34.65
77893;BME280;67087;50.094;14.338;2023-04-06T12:27:53;98298.65;;;25.00;34.69
77893;BME280;67087;50.094;14.338;2023-04-06T12:30:18;98295.47;;;25.02;34.69
77893;BME280;67087;50.094;14.338;2023-04-06T12:32:44;98296.21;;;24.78;34.60
77893;BME280;67087;50.094;14.338;2023-04-06T12:35:09;98299.27;;;25.11;34.55
77893;BME280;67087;50.094;14.338;2023-04-06T12:37:34;98291.95;;;25.10;34.65
77893;BME280;67087;50.094;14.338;2023-04-06T12:39:59;98285.42;;;25.20;34.42